City's sites:

title views votes rating creation
?never been here 447 12 (3.08)  2010-02-07
?pastel negro 683 14 (2.50)  2010-02-07
?dizzy 354 8 (3.38)  2010-02-07
?two pictures from my desktop 920 16 (3.69)  2010-02-09
?broken clock realizes he is the last object left in the ... 512 10 (3.20)  2010-02-09
?heroes of old 670 19 (3.74)  2010-02-09
?mr. price 507 8 (3.25)  2010-02-09
?Music I Like - Part 1 706 10 (3.60)  2010-02-10
?Music I Like - Part 2 456 13 (3.54)  2010-02-10
?Music I Like - Part 3 599 13 (3.69)  2010-02-10
?Music I Like - Part 4 480 5 (3.20)  2010-02-10
?intense 638 9 (3.78)  2010-02-10
?oh SNAP 869 9 (3.22)  2010-02-10
?Music I Like - Part 5 625 9 (3.56)  2010-02-10
?SignlanguageTMND 468 14 (3.86)  2010-02-10
?lol internet (refresh) 721 6 (3.17)  2010-02-12
?Dumbeldore kills snape! 3,454 67 (4.03)  2010-02-12
?prairiedogeric10 tribute site 786 23 (3.96)  2010-02-13
?Legolewdite fan club 1,381 38 (3.87)  2010-02-13
?Connery retires 515 13 (3.85)  2010-02-13
?TOURNEY4: lol internet 625 7 (2.43)  2010-02-15
?Speed Deemon 1,136 23 (3.74)  2010-02-23
?Tribute: ASSCOCKredux 1,787 64 (3.91)  2010-02-23
?some light jazz with Robert De Niro 937 12 (3.50)  2010-02-23
?In What Language 1,551 34 (3.74)  2010-02-24
?go go go go go go go go go go go go go go go go ... 2,148 23 (3.74)  2010-02-24
?FEARCONDOM'S FAMILY Q U I L T 653 11 (3.55)  2010-02-24
?TEST 887 19 (3.84)  2010-02-26
?....someday, oh dream maker DUNANANANAN... 5,214 148 (3.96)  2010-02-28
?DOUGH FUNNIE HOMO DICKS 773 12 (3.58)  2010-03-01
?Using a concrete bricK 646 17 (3.82)  2010-03-01
?I had sex with a Kayan Tribe woman, little help plea... 1,125 11 (3.36)  2010-03-03
?Adventure 4 1,202 18 (3.61)  2010-03-03
?the standoff 519 9 (3.67)  2010-03-03
?alley children 624 11 (3.91)  2010-03-05
?Steven Seagal isn't impressed 9,997 181 (4.17)  2010-03-05
?Daunting Steps 249 7 (3.00)  2010-03-05
?Cruel and Unusual 6,343 163 (4.24)  2010-03-09
?DancehallTMND 515 10 (3.80)  2010-03-12
?FUCK OUT MY FACE 528 5 (2.60)  2010-03-18
?16, no dither 869 18 (3.94)  2010-03-20
?say hi to my girlfriend 1,116 16 (3.81)  2010-03-21
?TT 742 16 (3.88)  2010-03-23
?jimmm thinks about his next five 755 20 (3.80)  2010-03-24
?THE TELEKINETIC MAN 381 18 (3.50)  2010-03-25
?. 169 7 (2.71)  2010-03-26
?1! 421 17 (3.35)  2010-03-26
?Fake crocodile takes it to the limit one more time 654 9 (3.67)  2010-03-27
?croctheme 450 4 (3.25)  2010-03-27
?crocodile site 555 6 (3.50)  2010-03-27
?CROC MAKES A 187 LOOK EASY 237 6 (3.33)  2010-03-27
?New Croc SIte 218 5 (3.40)  2010-03-27
?L 473 19 (3.63)  2010-03-27
?crocodile sIte 414 10 (3.50)  2010-03-30
?Pleasant® 454 8 (3.38)  2010-03-30
?A Lovely Ride 336 13 (3.85)  2010-03-30
?It's glorious today 337 14 (3.64)  2010-04-01
?Na - Zu 476 10 (3.70)  2010-04-01
?WHO'NOWOWOWOW 466 5 (2.60)  2010-04-03
?part of your world 261 5 (3.00)  2010-04-04
?fff 211 4 (3.50)  2010-04-04
?FIve-star webiste 1,123 16 (1.94)  2010-04-04
?Captain Haddock 1,859 28 (3.86)  2010-04-04
?, 336 9 (3.33)  2010-04-05
?indnian 506 7 (2.71)  2010-04-05
?Ricky Manning tribute sIte will be Underway soon ! 304 3 (3.67)  2010-04-06
?Epic Domain Grab 290 6 (2.17)  2010-04-06
?retirement site 196 6 (2.83)  2010-04-06
?Paul newman doesn't drive a VAN 247 4 (3.00)  2010-04-06
?Vince McMan 453 7 (2.86)  2010-04-06
?LOL 385 5 (3.00)  2010-04-06
?wut 379 4 (2.75)  2010-04-06
?www.coachcarter.ytmnd.com 386 8 (1.88)  2010-04-06
?untitled 367 7 (2.14)  2010-04-09
?ExpirimennalTYTMND 459 8 (3.38)  2010-04-09
?jioejejejoijiojiojioejiejoijeoj 487 14 (3.79)  2010-04-09
?Jake Steele catches a fly ball 424 4 (3.50)  2010-04-10
?Jake Steele forgets the milk 408 3 (3.00)  2010-04-10
?Jake Steele just found his watch 387 4 (3.25)  2010-04-10
?Jake Steele grows up a bit 531 7 (2.86)  2010-04-10
?KRA2008 442 5 (2.60)  2010-04-10
?Fuck the world 887 26 (3.88)  2010-04-16
?a sexual guy 594 10 (2.30)  2010-05-12
?well 421 4 (4.25)  2010-09-03
?gay site you can watch while thinking about stuff 1,768 15 (4.07)  2010-09-13
?site dedicated to great warchief 1,372 12 (3.58)  2010-09-16
?38388 936 8 (3.88)  2010-09-16
?watching the world buzz by 598 4 (3.50)  2010-09-16
?what now 1,555 17 (3.94)  2010-09-16